Time;durP1;ratioP1;P1;durP2;ratioP2;P2;SDS_P1;SDS_P2;PMS_P1;PMS_P2;Temp;Humidity;BMP_temperature;BMP_pressure;BME280_temperature;BME280_humidity;BME280_pressure;Samples;Min_cycle;Max_cycle;Signal;HPM_P1;HPM_P2
2022/09/21 00:00:08;;;;;;;3.17;2.45;;;10.40;99.90;;;;;;5013342;28;20440;-47
2022/09/21 00:02:33;;;;;;;3.83;2.30;;;10.30;99.90;;;;;;5013375;28;20101;-48
2022/09/21 00:04:58;;;;;;;7.80;2.72;;;10.30;99.90;;;;;;5013178;28;20036;-52
2022/09/21 00:07:24;;;;;;;7.18;2.75;;;10.20;99.90;;;;;;5013170;28;20037;-47
2022/09/21 00:09:50;;;;;;;5.97;2.30;;;10.20;99.90;;;;;;5013185;28;20533;-46
2022/09/21 00:12:16;;;;;;;3.35;2.47;;;10.20;99.90;;;;;;5012574;28;20132;-47
2022/09/21 00:14:42;;;;;;;2.10;1.92;;;10.20;99.90;;;;;;5012644;28;20036;-51
2022/09/21 00:17:08;;;;;;;3.95;2.60;;;10.10;99.90;;;;;;5013035;28;20034;-52
2022/09/21 00:19:34;;;;;;;2.40;2.20;;;10.20;99.90;;;;;;5011508;28;20021;-49
2022/09/21 00:22:00;;;;;;;6.53;2.60;;;10.00;99.90;;;;;;5012625;28;20501;-47
2022/09/21 00:24:26;;;;;;;2.63;2.30;;;10.00;99.90;;;;;;5012756;28;20096;-46
2022/09/21 00:26:52;;;;;;;6.05;2.60;;;10.00;99.90;;;;;;5011692;28;20073;-53
2022/09/21 00:29:17;;;;;;;4.40;2.47;;;9.90;99.90;;;;;;5012685;28;20513;-48
2022/09/21 00:31:43;;;;;;;2.95;2.30;;;9.80;99.90;;;;;;5012783;28;20068;-44
2022/09/21 00:34:08;;;;;;;7.50;3.42;;;9.80;99.90;;;;;;5012442;28;20033;-51
2022/09/21 00:36:34;;;;;;;12.88;3.92;;;9.70;99.90;;;;;;5012695;28;20057;-49
2022/09/21 00:39:00;;;;;;;15.57;4.20;;;9.70;99.90;;;;;;5012624;28;20069;-47
2022/09/21 00:41:28;;;;;;;7.88;3.92;;;9.70;99.90;;;;;;5011960;28;20025;-46
2022/09/21 00:44:19;;;;;;;6.70;4.50;;;9.80;99.90;;;;;;5012418;28;20034;-46
2022/09/21 00:46:47;;;;;;;8.15;3.78;;;9.70;99.90;;;;;;5012474;28;20490;-48
2022/09/21 00:49:14;;;;;;;6.10;4.22;;;9.70;99.90;;;;;;5012821;28;20029;-50
2022/09/21 00:51:41;;;;;;;7.20;4.45;;;9.70;99.90;;;;;;5012395;28;20030;-49
2022/09/21 00:54:18;;;;;;;5.07;2.95;;;9.70;99.90;;;;;;5012188;28;20029;-46
2022/09/21 00:56:45;;;;;;;4.80;3.20;;;9.70;99.90;;;;;;5010953;28;20030;-45
2022/09/21 00:59:12;;;;;;;5.75;2.72;;;9.60;99.90;;;;;;5012553;28;20030;-47
2022/09/21 01:01:38;;;;;;;5.22;3.05;;;9.50;99.90;;;;;;5012192;28;20068;-51
2022/09/21 01:04:05;;;;;;;7.82;3.30;;;9.50;99.90;;;;;;5011826;28;20453;-48
2022/09/21 01:06:32;;;;;;;3.85;3.45;;;9.40;99.90;;;;;;5012066;28;20542;-45
2022/09/21 01:08:58;;;;;;;5.75;3.50;;;9.40;99.90;;;;;;5012063;28;20029;-47
2022/09/21 01:11:46;;;;;;;5.90;3.38;;;9.30;99.90;;;;;;5012064;28;20642;-46
2022/09/21 01:14:29;;;;;;;7.50;3.92;;;9.20;99.90;;;;;;5011666;28;20105;-51
2022/09/21 01:16:55;;;;;;;4.70;3.17;;;9.20;99.90;;;;;;5012067;28;20549;-46
2022/09/21 01:19:26;;;;;;;7.72;3.90;;;9.20;99.90;;;;;;5011896;28;20137;-51
2022/09/21 01:22:08;;;;;;;6.13;3.47;;;9.20;99.90;;;;;;5010517;28;20030;-47
2022/09/21 01:24:43;;;;;;;6.40;4.07;;;9.10;99.90;;;;;;5011949;28;20429;-48
2022/09/21 01:27:27;;;;;;;8.75;3.90;;;9.00;99.90;;;;;;5010835;28;20196;-47
2022/09/21 01:30:13;;;;;;;5.20;4.07;;;9.00;99.90;;;;;;5010421;28;20038;-51
2022/09/21 01:32:45;;;;;;;10.18;4.35;;;8.90;99.90;;;;;;5011467;28;20113;-47
2022/09/21 01:35:26;;;;;;;8.38;4.13;;;8.90;99.90;;;;;;5011545;28;20107;-48
2022/09/21 01:38:00;;;;;;;11.10;4.72;;;8.80;99.90;;;;;;5010574;28;20030;-47
2022/09/21 01:40:29;;;;;;;10.45;4.50;;;8.70;99.90;;;;;;5011779;28;20374;-47
2022/09/21 01:42:57;;;;;;;10.50;4.65;;;8.70;99.90;;;;;;5011657;28;20115;-46
2022/09/21 01:45:39;;;;;;;8.00;4.38;;;8.70;99.90;;;;;;5011907;28;20026;-49
2022/09/21 01:48:05;;;;;;;12.50;5.65;;;8.60;99.90;;;;;;5010479;28;20022;-51
2022/09/21 01:50:37;;;;;;;7.70;4.07;;;8.60;99.90;;;;;;5011671;28;20057;-44
2022/09/21 01:53:10;;;;;;;9.00;5.68;;;8.60;99.90;;;;;;5013380;28;20018;-48
2022/09/21 01:56:03;;;;;;;12.40;4.78;;;8.60;99.90;;;;;;5015552;28;20034;-49
2022/09/21 01:58:49;;;;;;;6.55;5.15;;;8.60;99.90;;;;;;5011108;28;20038;-47
2022/09/21 02:01:19;;;;;;;6.43;4.32;;;8.60;99.90;;;;;;5015481;28;20405;-53
2022/09/21 02:03:54;;;;;;;9.57;5.32;;;8.60;99.90;;;;;;5015346;28;20489;-48
2022/09/21 02:06:19;;;;;;;6.63;4.72;;;8.70;99.90;;;;;;5015703;28;20111;-50
2022/09/21 02:08:45;;;;;;;11.93;5.40;;;8.70;99.90;;;;;;5014095;28;20061;-55
2022/09/21 02:11:12;;;;;;;8.20;4.82;;;8.70;99.90;;;;;;5015415;28;20113;-54
2022/09/21 02:13:42;;;;;;;9.38;4.75;;;8.60;99.90;;;;;;5015073;28;20029;-49
2022/09/21 02:16:23;;;;;;;10.02;4.85;;;8.60;99.90;;;;;;5014803;28;20025;-47
2022/09/21 02:19:09;;;;;;;8.25;5.13;;;8.60;99.90;;;;;;5015304;28;20512;-50
2022/09/21 02:21:52;;;;;;;8.98;5.80;;;8.50;99.90;;;;;;5015158;28;20116;-46
2022/09/21 02:24:40;;;;;;;7.63;5.28;;;8.50;99.90;;;;;;5014803;28;20029;-51
2022/09/21 02:27:37;;;;;;;9.43;6.03;;;8.50;99.90;;;;;;5015018;28;20029;-46
2022/09/21 02:30:16;;;;;;;13.82;5.82;;;8.40;99.90;;;;;;5013663;28;20073;-49
2022/09/21 02:33:14;;;;;;;9.40;5.15;;;8.40;99.90;;;;;;5014555;28;20120;-47
2022/09/21 02:35:54;;;;;;;12.90;5.40;;;8.40;99.90;;;;;;5013486;28;20044;-46
2022/09/21 02:38:46;;;;;;;6.82;5.40;;;8.40;99.90;;;;;;5014805;28;20105;-46
2022/09/21 02:41:14;;;;;;;9.55;6.45;;;8.40;99.90;;;;;;5014722;28;20033;-49
2022/09/21 02:44:02;;;;;;;9.93;6.00;;;8.40;99.90;;;;;;5014572;28;20072;-48
2022/09/21 02:46:36;;;;;;;10.88;6.18;;;8.40;99.90;;;;;;5014736;28;20018;-46
2022/09/21 02:49:08;;;;;;;6.82;5.90;;;8.40;99.90;;;;;;5014654;28;20056;-46
2022/09/21 02:51:42;;;;;;;11.52;6.55;;;8.40;99.90;;;;;;5014594;28;20088;-47
2022/09/21 02:54:12;;;;;;;12.13;6.18;;;8.40;99.90;;;;;;5014354;28;20448;-47
2022/09/21 02:56:40;;;;;;;11.65;6.35;;;8.30;99.90;;;;;;5014466;28;20034;-47
2022/09/21 02:59:06;;;;;;;14.10;6.65;;;8.40;99.90;;;;;;5014498;28;20026;-48
2022/09/21 03:01:32;;;;;;;9.27;6.00;;;8.40;99.90;;;;;;5014418;28;20101;-52
2022/09/21 03:03:58;;;;;;;7.07;6.07;;;8.40;99.90;;;;;;5013253;28;20018;-45
2022/09/21 03:06:24;;;;;;;6.25;5.55;;;8.40;99.90;;;;;;5014229;28;20497;-49
2022/09/21 03:08:49;;;;;;;10.57;5.63;;;8.40;99.90;;;;;;5014167;28;20037;-46
2022/09/21 03:11:16;;;;;;;7.93;4.63;;;8.30;99.90;;;;;;5014186;28;20030;-49
2022/09/21 03:13:43;;;;;;;8.00;5.07;;;8.30;99.90;;;;;;5013906;28;20493;-49
2022/09/21 03:16:09;;;;;;;11.85;5.10;;;8.30;99.90;;;;;;5013810;28;20022;-47
2022/09/21 03:18:34;;;;;;;9.95;5.18;;;8.20;99.90;;;;;;5014221;28;20033;-48
2022/09/21 03:21:01;;;;;;;11.70;4.10;;;8.20;99.90;;;;;;5014047;28;20402;-46
2022/09/21 03:23:26;;;;;;;7.28;4.55;;;8.10;99.90;;;;;;5013710;28;20083;-51
2022/09/21 03:25:53;;;;;;;10.32;4.68;;;8.10;99.90;;;;;;5014063;28;20021;-48
2022/09/21 03:28:19;;;;;;;7.03;5.55;;;8.10;99.90;;;;;;5013856;28;20112;-50
2022/09/21 03:30:45;;;;;;;6.25;4.18;;;8.00;99.90;;;;;;5014299;28;20057;-45
2022/09/21 03:33:11;;;;;;;11.73;6.13;;;8.10;99.90;;;;;;5012250;28;20049;-51
2022/09/21 03:35:38;;;;;;;12.38;6.22;;;8.00;99.90;;;;;;5013596;28;20120;-51
2022/09/21 03:38:04;;;;;;;12.88;7.30;;;8.00;99.90;;;;;;5013712;28;20168;-48
2022/09/21 03:40:30;;;;;;;16.95;7.80;;;8.10;99.90;;;;;;5013561;28;20445;-48
2022/09/21 03:42:56;;;;;;;22.33;9.85;;;8.00;99.90;;;;;;5013397;28;20021;-50
2022/09/21 03:45:21;;;;;;;16.35;9.45;;;8.00;99.90;;;;;;5013438;28;20519;-46
2022/09/21 03:47:47;;;;;;;11.90;9.73;;;8.00;99.90;;;;;;5012348;28;20084;-48
2022/09/21 03:50:13;;;;;;;12.10;8.73;;;8.00;99.90;;;;;;5013309;28;20037;-47
2022/09/21 03:52:39;;;;;;;14.48;8.85;;;8.00;99.90;;;;;;5013105;28;20505;-45
2022/09/21 03:55:07;;;;;;;10.48;8.30;;;8.00;99.90;;;;;;5012113;28;20030;-46
2022/09/21 03:57:33;;;;;;;12.43;8.30;;;8.00;99.90;;;;;;5011928;28;20080;-50
2022/09/21 04:00:01;;;;;;;11.35;8.13;;;7.90;99.90;;;;;;5013162;28;20026;-48
2022/09/21 04:02:26;;;;;;;12.90;8.55;;;7.90;99.90;;;;;;5013060;28;20021;-51
2022/09/21 04:04:52;;;;;;;12.93;7.82;;;7.90;99.90;;;;;;5026951;23;20046;-43
2022/09/21 04:07:17;;;;;;;9.63;7.65;;;7.90;99.90;;;;;;4994297;28;20101;-47
2022/09/21 04:09:43;;;;;;;12.60;7.50;;;7.80;99.90;;;;;;4994156;28;20023;-47
2022/09/21 04:12:08;;;;;;;11.98;8.07;;;7.90;99.90;;;;;;4994302;28;20552;-42
2022/09/21 04:14:34;;;;;;;9.18;7.22;;;7.90;99.90;;;;;;4993889;28;20026;-43
2022/09/21 04:16:59;;;;;;;10.25;7.78;;;7.90;99.90;;;;;;4994388;28;20068;-44
2022/09/21 04:19:25;;;;;;;19.77;7.03;;;7.90;99.90;;;;;;4994254;28;20497;-43
2022/09/21 04:21:51;;;;;;;9.02;6.32;;;7.80;99.90;;;;;;4994215;28;20038;-41
2022/09/21 04:24:18;;;;;;;7.25;6.35;;;7.80;99.90;;;;;;4994229;28;20019;-43
2022/09/21 04:26:44;;;;;;;15.27;6.03;;;7.80;99.90;;;;;;4994067;28;20026;-47
2022/09/21 04:29:11;;;;;;;8.13;6.35;;;7.80;99.90;;;;;;4993790;28;20026;-48
2022/09/21 04:31:37;;;;;;;6.68;5.55;;;7.80;99.90;;;;;;4994040;28;20402;-43
2022/09/21 04:34:02;;;;;;;8.23;5.85;;;7.70;99.90;;;;;;4992901;28;20022;-43
2022/09/21 04:36:28;;;;;;;10.20;6.22;;;7.70;99.90;;;;;;4993469;28;20478;-45
2022/09/21 04:38:54;;;;;;;7.45;5.95;;;7.60;99.90;;;;;;4993329;28;20109;-43
2022/09/21 04:41:19;;;;;;;10.98;5.78;;;7.60;99.90;;;;;;4993471;28;20026;-45
2022/09/21 04:43:47;;;;;;;6.68;5.57;;;7.60;99.90;;;;;;4993289;28;20079;-46
2022/09/21 04:46:16;;;;;;;9.80;5.38;;;7.50;99.90;;;;;;4993427;28;20070;-45
2022/09/21 04:48:42;;;;;;;6.72;5.93;;;7.50;99.90;;;;;;4993722;28;20018;-45
2022/09/21 04:51:08;;;;;;;6.00;5.40;;;7.50;99.90;;;;;;4993605;28;20033;-42
2022/09/21 04:53:35;;;;;;;7.38;5.65;;;7.50;99.90;;;;;;4993053;28;20379;-42
2022/09/21 04:56:02;;;;;;;8.00;5.90;;;7.50;99.90;;;;;;4993449;28;20026;-49
2022/09/21 04:58:28;;;;;;;17.85;6.20;;;7.40;99.90;;;;;;4993194;28;20375;-43
2022/09/21 05:00:54;;;;;;;6.18;5.35;;;7.50;99.90;;;;;;4994002;28;20030;-50
2022/09/21 05:03:21;;;;;;;7.10;5.00;;;7.40;99.90;;;;;;4992948;28;20483;-45
2022/09/21 05:05:48;;;;;;;8.05;5.55;;;7.50;99.90;;;;;;4993446;28;20510;-47
2022/09/21 05:08:15;;;;;;;10.43;5.72;;;7.50;99.90;;;;;;4993402;28;20027;-43
2022/09/21 05:10:40;;;;;;;8.15;5.07;;;7.40;99.90;;;;;;4994472;28;20076;-44
2022/09/21 05:13:06;;;;;;;8.50;4.90;;;7.40;99.90;;;;;;4993701;28;20458;-46
2022/09/21 05:15:32;;;;;;;8.57;5.72;;;7.40;99.90;;;;;;4992747;28;20084;-44
2022/09/21 05:17:57;;;;;;;9.07;5.47;;;7.40;99.90;;;;;;4992104;28;20030;-47
2022/09/21 05:20:23;;;;;;;5.38;4.78;;;7.40;99.90;;;;;;4992969;28;20322;-44
2022/09/21 05:22:48;;;;;;;10.50;5.40;;;7.40;99.90;;;;;;4993001;28;20038;-49
2022/09/21 05:25:14;;;;;;;7.70;6.78;;;7.40;99.90;;;;;;4992758;28;20042;-44
2022/09/21 05:27:40;;;;;;;5.18;4.68;;;7.40;99.90;;;;;;4992560;28;20033;-41
2022/09/21 05:30:06;;;;;;;6.75;6.05;;;7.50;99.90;;;;;;4993118;28;20034;-47
2022/09/21 05:32:51;;;;;;;7.35;5.28;;;7.50;99.90;;;;;;4990943;28;20034;-45
2022/09/21 05:35:27;;;;;;;10.67;5.80;;;7.60;99.90;;;;;;4992917;28;20482;-48
2022/09/21 05:38:07;;;;;;;7.40;6.07;;;7.60;99.90;;;;;;4994662;28;20033;-45
2022/09/21 05:40:33;;;;;;;6.72;6.03;;;7.70;99.90;;;;;;4993330;28;20030;-43
2022/09/21 05:42:59;;;;;;;7.43;5.32;;;7.70;99.90;;;;;;4992615;28;20018;-42
2022/09/21 05:45:27;;;;;;;6.63;5.10;;;7.70;99.90;;;;;;4991286;28;20509;-44
2022/09/21 05:48:28;;;;;;;7.70;5.80;;;7.80;99.90;;;;;;4992166;28;20023;-43
2022/09/21 05:51:19;;;;;;;6.25;5.65;;;7.80;99.90;;;;;;4945321;28;20043;-46
2022/09/21 05:54:06;;;;;;;8.70;5.45;;;7.80;99.90;;;;;;4984247;28;20394;-44
2022/09/21 05:57:03;;;;;;;10.88;6.15;;;7.80;99.90;;;;;;4992135;28;20106;-44
2022/09/21 06:00:05;;;;;;;7.35;5.80;;;7.80;99.90;;;;;;4992003;28;20033;-49
2022/09/21 06:02:58;;;;;;;7.13;5.28;;;8.00;99.90;;;;;;4991543;28;20033;-46
2022/09/21 06:05:24;;;;;;;8.20;5.65;;;8.00;99.90;;;;;;4991723;28;20038;-44
2022/09/21 06:07:50;;;;;;;6.95;5.68;;;8.10;99.90;;;;;;4991952;28;20038;-42
2022/09/21 06:10:15;;;;;;;10.25;6.47;;;8.20;99.90;;;;;;4991272;28;20027;-46
2022/09/21 06:12:41;;;;;;;6.95;5.70;;;8.20;99.90;;;;;;4991311;28;20102;-46
2022/09/21 06:15:11;;;;;;;9.18;5.30;;;8.20;99.90;;;;;;4991853;28;20441;-44
2022/09/21 06:17:37;;;;;;;11.55;6.32;;;8.30;99.90;;;;;;4991924;28;20429;-45
2022/09/21 06:20:03;;;;;;;12.15;7.65;;;8.40;99.90;;;;;;4991613;28;20092;-44
2022/09/21 06:22:28;;;;;;;8.88;5.20;;;8.40;99.90;;;;;;4991574;28;20505;-41
2022/09/21 06:24:54;;;;;;;11.23;6.00;;;8.50;99.90;;;;;;4990362;28;20027;-47
2022/09/21 06:27:19;;;;;;;6.75;5.15;;;8.70;99.90;;;;;;4991572;28;20018;-46
2022/09/21 06:29:45;;;;;;;8.82;5.45;;;8.90;99.90;;;;;;4992225;28;20022;-43
2022/09/21 06:32:10;;;;;;;6.18;4.97;;;9.30;99.90;;;;;;4991502;28;20406;-44
2022/09/21 06:34:36;;;;;;;5.13;4.25;;;9.90;99.90;;;;;;4991746;28;20492;-46
2022/09/21 06:37:02;;;;;;;8.35;4.10;;;10.60;99.90;;;;;;4990536;28;20049;-44
2022/09/21 06:39:28;;;;;;;8.10;3.80;;;11.50;99.90;;;;;;4992657;28;20658;-45
2022/09/21 06:41:54;;;;;;;8.02;3.88;;;12.40;99.90;;;;;;4995613;28;20053;-45
2022/09/21 06:44:19;;;;;;;8.18;4.38;;;13.30;99.90;;;;;;4994942;28;20023;-48
2022/09/21 06:46:45;;;;;;;4.82;4.22;;;13.60;99.90;;;;;;4995283;28;20030;-45
2022/09/21 06:49:10;;;;;;;8.32;3.80;;;13.50;99.90;;;;;;4995329;28;20026;-47
2022/09/21 06:51:36;;;;;;;10.65;3.63;;;13.60;99.90;;;;;;4995211;28;20034;-41
2022/09/21 06:54:01;;;;;;;4.60;3.92;;;13.60;99.90;;;;;;4995043;28;20164;-48
2022/09/21 06:56:27;;;;;;;7.15;4.10;;;13.90;99.90;;;;;;4995073;28;20030;-46
2022/09/21 06:58:54;;;;;;;5.10;3.40;;;14.10;99.90;;;;;;4994800;28;20390;-43
2022/09/21 07:01:20;;;;;;;7.55;4.28;;;14.40;99.90;;;;;;4995049;28;20081;-48
2022/09/21 07:03:49;;;;;;;8.98;3.58;;;14.40;99.90;;;;;;4994187;28;20066;-45
2022/09/21 07:06:16;;;;;;;6.93;3.67;;;14.50;99.90;;;;;;4995004;28;20038;-44
2022/09/21 07:08:43;;;;;;;5.78;3.05;;;14.80;99.90;;;;;;4993021;28;20034;-45
2022/09/21 07:11:09;;;;;;;4.25;3.65;;;15.20;99.90;;;;;;4994681;28;20022;-47
2022/09/21 07:13:35;;;;;;;6.30;3.58;;;15.60;99.90;;;;;;4994428;28;20105;-43
2022/09/21 07:16:08;;;;;;;4.57;4.18;;;15.30;99.90;;;;;;4994478;28;20150;-45
2022/09/21 07:18:34;;;;;;;5.88;3.95;;;15.00;99.90;;;;;;4993182;28;20073;-42
2022/09/21 07:21:03;;;;;;;5.30;3.25;;;14.90;99.90;;;;;;4994652;28;20026;-45
2022/09/21 07:23:29;;;;;;;7.72;4.00;;;14.60;99.90;;;;;;4993077;28;20501;-44
2022/09/21 07:25:54;;;;;;;6.18;3.58;;;14.80;99.90;;;;;;4994264;28;20102;-45
2022/09/21 07:28:20;;;;;;;9.63;3.50;;;15.00;99.90;;;;;;4994302;28;20026;-45
2022/09/21 07:30:46;;;;;;;11.85;3.60;;;15.60;99.90;;;;;;4993899;28;20026;-45
2022/09/21 07:33:11;;;;;;;9.07;4.10;;;16.00;99.90;;;;;;4992985;28;20499;-50
2022/09/21 07:35:37;;;;;;;4.13;3.40;;;16.30;99.90;;;;;;4994006;28;20038;-48
2022/09/21 07:38:05;;;;;;;10.98;3.90;;;16.50;99.90;;;;;;4993566;28;20521;-44
2022/09/21 07:40:31;;;;;;;3.97;3.30;;;17.00;99.90;;;;;;4993535;28;20026;-44
2022/09/21 07:42:58;;;;;;;9.23;3.42;;;17.00;99.90;;;;;;4991100;28;20026;-45
2022/09/21 07:45:24;;;;;;;5.47;3.20;;;16.90;99.90;;;;;;4991663;28;20046;-44
2022/09/21 07:47:53;;;;;;;4.30;3.15;;;16.50;99.90;;;;;;4993816;28;20019;-47
2022/09/21 07:50:19;;;;;;;4.78;3.72;;;15.90;99.90;;;;;;4993472;28;20023;-46
2022/09/21 07:52:44;;;;;;;7.28;3.70;;;15.10;99.90;;;;;;4975431;28;20023;-46
2022/09/21 07:55:10;;;;;;;3.67;2.97;;;14.60;99.90;;;;;;4974245;28;20029;-47
2022/09/21 08:00:20;;;;;;;10.82;3.75;;;13.50;99.90;;;;;;4974229;28;20030;-46
2022/09/21 08:02:45;;;;;;;6.38;4.30;;;13.10;99.90;;;;;;4974783;28;20023;-44
2022/09/21 08:05:11;;;;;;;9.10;3.83;;;12.80;99.90;;;;;;4993355;28;20034;-46
2022/09/21 08:07:36;;;;;;;5.28;3.45;;;12.60;99.90;;;;;;4993565;28;20018;-45
2022/09/21 08:10:02;;;;;;;4.28;3.85;;;12.30;99.90;;;;;;4993347;28;20101;-46
2022/09/21 08:12:27;;;;;;;8.20;3.53;;;12.20;99.90;;;;;;4993094;28;20061;-45
2022/09/21 08:14:53;;;;;;;5.53;4.10;;;11.90;99.90;;;;;;4993276;28;20038;-48
2022/09/21 08:17:18;;;;;;;4.97;3.88;;;11.90;99.90;;;;;;4993577;28;20415;-44
2022/09/21 08:19:44;;;;;;;6.18;4.43;;;11.90;99.90;;;;;;4993360;28;20038;-44
2022/09/21 08:22:11;;;;;;;5.53;3.10;;;11.90;99.90;;;;;;4992983;28;20044;-47
2022/09/21 08:24:36;;;;;;;6.05;3.55;;;11.90;99.90;;;;;;4992731;28;20548;-44
2022/09/21 08:27:02;;;;;;;6.55;3.90;;;12.00;99.90;;;;;;4992138;28;20073;-44
2022/09/21 08:29:28;;;;;;;7.63;4.40;;;12.00;99.90;;;;;;4993414;28;20023;-44
2022/09/21 08:31:53;;;;;;;6.10;4.68;;;12.00;99.90;;;;;;4992968;28;20030;-44
2022/09/21 08:34:19;;;;;;;9.70;3.30;;;11.90;99.90;;;;;;4994060;28;20065;-50
2022/09/21 08:36:45;;;;;;;7.30;3.65;;;11.90;99.90;;;;;;4990879;28;20061;-50
2022/09/21 08:39:11;;;;;;;6.38;3.50;;;11.90;99.90;;;;;;5012563;28;20057;-45
2022/09/21 08:42:24;;;;;;;6.28;3.28;;;12.00;99.90;;;;;;4997018;28;20438;-46
2022/09/21 08:45:00;;;;;;;3.05;2.85;;;12.10;99.90;;;;;;4984460;28;20129;-46
2022/09/21 08:47:35;;;;;;;6.57;2.83;;;12.10;99.90;;;;;;4992908;28;20019;-46
2022/09/21 08:50:02;;;;;;;;;;;12.30;99.90;;;;;;4992439;28;20045;-49
2022/09/21 08:52:27;;;;;;;2.75;2.45;;;13.20;99.90;;;;;;4991994;28;19964;-46
2022/09/21 08:55:01;;;;;;;2.88;1.98;;;14.60;99.90;;;;;;4992592;28;20026;-48
2022/09/21 08:57:32;;;;;;;3.55;1.60;;;15.80;99.90;;;;;;4992556;28;20034;-44
2022/09/21 08:59:59;;;;;;;2.90;2.63;;;16.90;99.90;;;;;;4991881;28;20065;-48
2022/09/21 09:03:01;;;;;;;2.55;1.52;;;17.80;99.90;;;;;;4990454;28;20022;-47
2022/09/21 09:05:42;;;;;;;1.88;1.75;;;18.00;99.80;;;;;;4991926;28;20512;-46
2022/09/21 09:08:44;;;;;;;5.55;1.35;;;18.30;98.70;;;;;;4973119;28;20419;-51
2022/09/21 09:11:32;;;;;;;2.80;1.50;;;18.40;98.50;;;;;;4985125;28;20041;-49
2022/09/21 09:14:13;;;;;;;2.33;1.52;;;19.30;97.20;;;;;;4992339;28;20500;-41
2022/09/21 09:17:00;;;;;;;2.47;1.40;;;19.60;96.60;;;;;;4992225;28;20034;-42
2022/09/21 09:19:41;;;;;;;2.25;1.33;;;20.20;95.60;;;;;;4991811;28;20513;-46
2022/09/21 09:22:12;;;;;;;3.70;1.60;;;20.60;94.90;;;;;;4979310;28;20026;-46
2022/09/21 09:24:50;;;;;;;2.75;1.98;;;20.70;94.50;;;;;;4991333;28;20046;-48
2022/09/21 09:27:39;;;;;;;2.85;1.40;;;20.70;94.20;;;;;;4991924;28;20022;-47
2022/09/21 09:30:24;;;;;;;3.03;1.38;;;20.50;94.50;;;;;;4986496;28;20597;-49
2022/09/21 09:33:28;;;;;;;2.35;1.52;;;20.00;94.90;;;;;;4991018;28;20031;-44
2022/09/21 09:36:03;;;;;;;4.38;1.52;;;19.10;96.00;;;;;;4931956;29;20526;-43
2022/09/21 09:38:40;;;;;;;5.33;2.13;;;18.50;97.60;;;;;;4984746;28;20067;-49
2022/09/21 09:41:21;;;;;;;7.40;1.80;;;18.00;98.50;;;;;;4991999;28;20282;-44
2022/09/21 09:43:58;;;;;;;7.22;2.95;;;17.90;99.50;;;;;;4991884;28;20030;-44
2022/09/21 09:46:35;;;;;;;4.72;1.70;;;18.10;98.80;;;;;;4991749;28;20022;-50
2022/09/21 09:49:15;;;;;;;2.78;1.77;;;18.20;98.80;;;;;;4992047;28;20023;-45
2022/09/21 09:51:41;;;;;;;3.10;1.70;;;18.40;99.40;;;;;;4991771;28;20514;-46
2022/09/21 09:54:13;;;;;;;2.88;1.40;;;18.40;98.80;;;;;;4991829;28;20033;-46
2022/09/21 09:56:39;;;;;;;3.10;1.27;;;18.60;98.80;;;;;;4991969;28;20034;-46
2022/09/21 09:59:17;;;;;;;4.05;2.15;;;18.80;98.50;;;;;;4991918;28;20038;-48
2022/09/21 10:01:47;;;;;;;2.60;1.40;;;18.80;97.80;;;;;;4991854;28;20030;-49
2022/09/21 10:06:39;;;;;;;1.33;1.20;;;18.30;97.60;;;;;;5003918;23;20438;-50
2022/09/21 10:09:29;;;;;;;1.58;1.08;;;18.20;98.40;;;;;;4991823;28;20367;-49
2022/09/21 10:11:59;;;;;;;6.65;2.05;;;18.00;97.40;;;;;;4994099;28;20022;-53
2022/09/21 10:14:28;;;;;;;4.18;1.35;;;17.80;98.20;;;;;;4994280;28;20057;-46
2022/09/21 10:16:56;;;;;;;2.60;1.20;;;17.70;98.10;;;;;;4995639;28;20041;-43
2022/09/21 10:19:24;;;;;;;1.85;1.30;;;17.60;99.10;;;;;;4995410;28;20031;-45
2022/09/21 10:21:55;;;;;;;4.18;1.42;;;17.40;99.60;;;;;;4996266;28;20088;-46
2022/09/21 10:24:24;;;;;;;5.00;1.00;;;17.20;99.20;;;;;;4977729;28;20023;-46
2022/09/21 10:27:09;;;;;;;1.55;1.30;;;17.10;99.40;;;;;;4975607;28;20034;-44
2022/09/21 10:29:46;;;;;;;2.22;1.52;;;17.10;99.70;;;;;;4977081;28;20541;-45
2022/09/21 10:32:12;;;;;;;1.85;1.13;;;17.10;99.30;;;;;;4976504;28;20495;-47
2022/09/21 10:34:39;;;;;;;5.47;1.98;;;17.20;99.40;;;;;;4976451;28;20034;-44
2022/09/21 10:37:29;;;;;;;2.60;1.17;;;17.20;99.20;;;;;;4975270;28;20042;-45
2022/09/21 10:39:56;;;;;;;1.40;1.17;;;17.20;98.10;;;;;;4974748;28;20054;-45
2022/09/21 10:42:21;;;;;;;1.75;1.00;;;17.00;98.50;;;;;;4975160;28;20035;-49
2022/09/21 10:44:50;;;;;;;1.02;0.95;;;17.00;98.90;;;;;;4975196;28;20031;-50
2022/09/21 10:47:30;;;;;;;2.17;0.93;;;16.90;98.80;;;;;;4975698;28;20395;-46
2022/09/21 10:50:00;;;;;;;1.23;0.80;;;16.80;98.40;;;;;;4975214;28;20046;-45
2022/09/21 10:52:38;;;;;;;3.53;0.90;;;16.70;98.70;;;;;;4975192;28;20031;-46
2022/09/21 10:55:06;;;;;;;1.75;0.75;;;16.70;98.50;;;;;;4976547;28;20077;-45
2022/09/21 10:57:32;;;;;;;1.48;1.00;;;16.60;98.90;;;;;;4977405;28;20041;-46
2022/09/21 11:00:11;;;;;;;0.90;0.90;;;16.50;98.90;;;;;;4977768;28;20015;-49
2022/09/21 11:02:37;;;;;;;2.72;1.67;;;16.50;98.70;;;;;;4976486;28;20100;-49
2022/09/21 11:05:16;;;;;;;1.67;0.70;;;16.50;99.50;;;;;;4976731;28;20599;-46
2022/09/21 11:08:05;;;;;;;2.33;0.90;;;16.40;98.30;;;;;;4977240;28;20026;-48
2022/09/21 11:10:37;;;;;;;3.50;0.93;;;16.30;98.60;;;;;;4975643;28;20092;-46
2022/09/21 11:13:15;;;;;;;5.78;1.98;;;16.30;97.70;;;;;;4977001;28;20504;-45
2022/09/21 11:16:05;;;;;;;3.83;0.85;;;16.20;98.60;;;;;;4977442;28;20042;-45
2022/09/21 11:18:50;;;;;;;0.85;0.82;;;16.10;99.10;;;;;;4977446;28;20023;-45
2022/09/21 11:21:33;;;;;;;1.55;0.93;;;16.20;99.50;;;;;;4977735;28;20033;-47
2022/09/21 11:24:29;;;;;;;1.73;1.00;;;16.30;99.30;;;;;;4977385;28;20031;-48
2022/09/21 11:27:07;;;;;;;;;;;16.40;99.30;;;;;;4976923;28;20391;-48
2022/09/21 11:29:53;;;;;;;1.65;0.85;;;16.30;98.30;;;;;;4975632;28;19945;-49
2022/09/21 11:32:34;;;;;;;0.73;0.73;;;16.30;98.30;;;;;;4976363;28;20027;-48
2022/09/21 11:35:02;;;;;;;2.15;0.80;;;16.20;98.40;;;;;;4977145;28;20019;-46
2022/09/21 11:37:31;;;;;;;3.15;1.20;;;16.20;98.60;;;;;;4976671;28;20438;-46
2022/09/21 11:40:47;;;;;;;3.35;1.08;;;16.10;99.10;;;;;;4977098;28;20042;-48
2022/09/21 11:43:36;;;;;;;1.70;1.00;;;16.10;99.10;;;;;;4958616;28;20041;-46
2022/09/21 11:46:05;;;;;;;4.90;1.00;;;16.20;99.80;;;;;;4975758;28;20023;-52
2022/09/21 11:49:03;;;;;;;2.08;0.80;;;16.30;98.70;;;;;;4976008;28;20483;-48
2022/09/21 11:51:45;;;;;;;3.10;1.40;;;16.30;98.40;;;;;;4975712;28;20034;-46
2022/09/21 11:54:24;;;;;;;2.38;0.95;;;16.30;98.70;;;;;;4974514;28;20027;-52
2022/09/21 11:57:21;;;;;;;2.45;1.10;;;16.30;99.00;;;;;;4975662;28;20023;-51
2022/09/21 12:00:02;;;;;;;0.60;0.60;;;16.30;98.80;;;;;;4975441;28;20033;-47
2022/09/21 12:03:04;;;;;;;1.17;0.93;;;16.40;97.10;;;;;;4975059;28;20023;-52
2022/09/21 12:06:03;;;;;;;1.95;1.27;;;16.40;97.60;;;;;;4975261;28;20329;-46
2022/09/21 12:09:07;;;;;;;3.03;0.68;;;16.30;98.70;;;;;;4975153;28;20019;-46
2022/09/21 12:12:00;;;;;;;2.47;0.98;;;16.40;98.10;;;;;;4974903;28;20030;-46
2022/09/21 12:14:52;;;;;;;1.05;0.80;;;16.40;98.90;;;;;;4975284;28;20457;-50
2022/09/21 12:17:42;;;;;;;1.38;0.88;;;16.40;97.60;;;;;;4975107;28;20041;-48
2022/09/21 12:20:41;;;;;;;1.17;0.60;;;16.40;96.70;;;;;;4974983;28;20050;-51
2022/09/21 12:23:41;;;;;;;3.75;1.73;;;16.30;97.10;;;;;;4974785;28;20105;-50
2022/09/21 12:26:09;;;;;;;1.20;0.80;;;16.30;98.10;;;;;;4974667;28;20376;-51
2022/09/21 12:28:49;;;;;;;5.63;1.70;;;16.40;98.20;;;;;;4975142;28;20030;-46
2022/09/21 12:31:25;;;;;;;1.40;1.10;;;16.50;98.40;;;;;;4974951;28;20114;-48
2022/09/21 12:34:02;;;;;;;0.80;0.80;;;16.50;98.30;;;;;;4974945;28;20030;-48
2022/09/21 12:36:41;;;;;;;1.33;0.95;;;16.60;97.60;;;;;;4974660;28;20027;-44
2022/09/21 12:39:17;;;;;;;0.73;0.73;;;16.60;97.20;;;;;;4973597;28;20062;-46
2022/09/21 12:42:01;;;;;;;1.65;1.55;;;16.60;96.30;;;;;;4974712;28;20031;-47
2022/09/21 12:44:50;;;;;;;1.77;1.02;;;16.60;97.10;;;;;;4974494;28;20030;-50
2022/09/21 12:47:37;;;;;;;2.78;0.95;;;16.70;96.20;;;;;;4974684;28;20082;-48
2022/09/21 12:50:14;;;;;;;3.45;1.80;;;16.60;96.40;;;;;;4974283;28;20038;-51
2022/09/21 12:52:40;;;;;;;1.17;1.05;;;16.70;96.80;;;;;;4973943;28;20126;-47
2022/09/21 12:55:34;;;;;;;2.03;1.10;;;16.70;96.60;;;;;;4974355;28;20019;-46
2022/09/21 12:58:13;;;;;;;2.88;1.20;;;16.80;96.00;;;;;;4974305;28;20506;-46
2022/09/21 13:01:14;;;;;;;1.48;1.08;;;16.90;96.00;;;;;;4974299;28;20034;-45
2022/09/21 13:04:11;;;;;;;0.70;0.70;;;16.90;95.60;;;;;;4974397;28;20023;-46
2022/09/21 13:07:19;;;;;;;2.92;0.85;;;16.90;95.70;;;;;;4974382;28;20037;-44
2022/09/21 13:09:47;;;;;;;1.45;0.90;;;16.70;96.10;;;;;;4974032;28;20030;-48
2022/09/21 13:12:16;;;;;;;2.50;1.00;;;16.70;96.10;;;;;;4974280;28;20543;-50
2022/09/21 13:14:46;;;;;;;1.67;0.90;;;16.80;96.20;;;;;;4975180;28;20031;-45
2022/09/21 13:17:29;;;;;;;2.00;0.80;;;16.80;97.00;;;;;;4974277;28;20390;-47
2022/09/21 13:20:03;;;;;;;3.50;0.88;;;16.90;96.70;;;;;;4974819;28;20026;-45
2022/09/21 13:22:34;;;;;;;0.65;0.65;;;17.00;96.00;;;;;;4974505;28;20435;-48
2022/09/21 13:25:16;;;;;;;2.35;1.10;;;17.00;95.20;;;;;;4974755;28;20077;-48